createdAt,value
2018-01-12T00:00:24.022Z,3.44
2018-01-12T00:02:52.319Z,3.68
2018-01-12T00:05:20.982Z,3.52
2018-01-12T00:07:49.383Z,3.53
2018-01-12T00:10:20.363Z,3.43
2018-01-12T00:12:49.302Z,3.54
2018-01-12T00:15:18.178Z,3.47
2018-01-12T00:17:47.634Z,3.37
2018-01-12T00:20:17.361Z,3.45
2018-01-12T00:22:46.667Z,3.41
2018-01-12T00:25:16.336Z,3.43
2018-01-12T00:27:45.204Z,3.26
2018-01-12T00:30:13.718Z,3.24
2018-01-12T00:32:42.710Z,3.34
2018-01-12T00:35:11.076Z,3.31
2018-01-12T00:37:39.372Z,3.29
2018-01-12T00:40:07.702Z,3.28
2018-01-12T00:42:36.076Z,3.48
2018-01-12T00:45:04.455Z,3.31
2018-01-12T00:47:32.915Z,3.16
2018-01-12T00:50:01.203Z,3.37
2018-01-12T00:52:29.717Z,3.34
2018-01-12T00:55:04.016Z,3.21
2018-01-12T00:57:34.663Z,3.43
2018-01-12T01:00:03.210Z,3.10
2018-01-12T01:02:34.462Z,2.90
2018-01-12T01:05:03.415Z,2.90
2018-01-12T01:07:31.972Z,2.94
2018-01-12T01:10:01.230Z,3.11
2018-01-12T01:12:29.582Z,3.13
2018-01-12T01:14:57.886Z,3.22
2018-01-12T01:17:26.763Z,3.00
2018-01-12T01:19:55.240Z,3.15
2018-01-12T01:22:24.043Z,3.17
2018-01-12T01:31:39.821Z,2.96
2018-01-12T01:34:08.122Z,3.01
2018-01-12T01:36:36.447Z,3.14
2018-01-12T01:39:05.421Z,3.38
2018-01-12T01:41:33.782Z,3.21
2018-01-12T01:44:02.128Z,3.31
2018-01-12T01:46:30.479Z,3.25
2018-01-12T01:48:58.760Z,2.92
2018-01-12T01:51:27.147Z,2.90
2018-01-12T01:53:55.571Z,2.86
2018-01-12T01:56:24.041Z,2.95
2018-01-12T01:58:52.427Z,2.83
2018-01-12T02:01:20.939Z,2.89
2018-01-12T02:03:49.392Z,2.75
2018-01-12T02:06:17.736Z,2.88
2018-01-12T02:08:46.020Z,2.88
2018-01-12T02:11:14.329Z,2.75
2018-01-12T02:13:42.726Z,2.88
2018-01-12T02:16:11.067Z,2.84
2018-01-12T02:18:39.365Z,3.01
2018-01-12T02:21:07.678Z,3.08
2018-01-12T02:23:36.018Z,3.11
2018-01-12T02:26:04.355Z,2.94
2018-01-12T02:28:32.679Z,2.83
2018-01-12T02:31:01.032Z,2.76
2018-01-12T02:33:29.547Z,2.85
2018-01-12T02:35:57.862Z,2.79
2018-01-12T02:38:26.172Z,2.86
2018-01-12T02:40:54.604Z,2.79
2018-01-12T02:43:23.083Z,3.08
2018-01-12T02:45:51.692Z,2.96
2018-01-12T02:48:21.324Z,3.11
2018-01-12T02:50:49.644Z,3.24
2018-01-12T02:53:17.943Z,3.00
2018-01-12T02:55:46.350Z,3.15
2018-01-12T02:58:14.686Z,3.30
2018-01-12T03:00:43.195Z,3.31
2018-01-12T03:03:11.518Z,2.94
2018-01-12T03:05:39.818Z,3.10
2018-01-12T03:08:08.256Z,3.03
2018-01-12T03:10:36.657Z,2.96
2018-01-12T03:13:05.012Z,2.72
2018-01-12T03:15:33.338Z,2.83
2018-01-12T03:18:01.635Z,2.94
2018-01-12T03:20:30.080Z,2.82
2018-01-12T03:22:58.530Z,2.77
2018-01-12T03:25:27.148Z,2.92
2018-01-12T03:27:55.434Z,2.93
2018-01-12T03:30:23.807Z,2.87
2018-01-12T03:32:52.116Z,2.96
2018-01-12T03:35:20.478Z,2.89
2018-01-12T03:37:48.800Z,3.11
2018-01-12T03:40:17.102Z,2.95
2018-01-12T03:42:45.457Z,2.92
2018-01-12T03:45:13.791Z,2.87
2018-01-12T03:47:42.099Z,2.94
2018-01-12T03:50:10.443Z,3.08
2018-01-12T03:52:38.736Z,2.92
2018-01-12T03:55:07.171Z,2.76
2018-01-12T03:57:35.618Z,2.85
2018-01-12T04:00:03.925Z,2.96
2018-01-12T04:02:32.269Z,2.85
2018-01-12T04:05:00.650Z,2.79
2018-01-12T04:07:29.015Z,2.89
2018-01-12T04:09:57.315Z,2.88
2018-01-12T04:12:25.640Z,2.50
2018-01-12T04:14:53.936Z,2.55
2018-01-12T04:17:22.270Z,2.67
2018-01-12T04:19:50.541Z,2.54
2018-01-12T04:22:18.871Z,2.55
2018-01-12T04:24:47.129Z,2.56
2018-01-12T04:27:15.484Z,2.61
2018-01-12T04:29:43.789Z,2.90
2018-01-12T04:32:12.142Z,2.83
2018-01-12T04:34:40.412Z,2.58
2018-01-12T04:37:08.747Z,2.68
2018-01-12T04:39:37.103Z,2.45
2018-01-12T04:42:05.470Z,2.54
2018-01-12T04:44:33.770Z,2.29
2018-01-12T04:47:02.115Z,2.24
2018-01-12T04:49:30.401Z,2.62
2018-01-12T04:51:58.788Z,2.51
2018-01-12T04:54:27.111Z,2.43
2018-01-12T04:56:56.423Z,2.48
2018-01-12T04:59:24.736Z,2.47
2018-01-12T05:04:48.890Z,2.61
2018-01-12T05:07:17.515Z,2.73
2018-01-12T05:09:46.127Z,2.36
2018-01-12T05:12:14.707Z,2.38
2018-01-12T05:14:43.233Z,2.71
2018-01-12T05:17:11.980Z,2.40
2018-01-12T05:19:40.632Z,2.61
2018-01-12T05:22:09.344Z,2.41
2018-01-12T05:24:37.860Z,2.38
2018-01-12T05:27:07.528Z,2.41
2018-01-12T05:29:36.342Z,2.40
2018-01-12T05:32:04.876Z,2.40
2018-01-12T05:34:33.376Z,2.49
2018-01-12T05:37:02.145Z,2.49
2018-01-12T05:39:30.649Z,2.35
2018-01-12T05:41:59.414Z,2.27
2018-01-12T05:44:27.948Z,2.41
2018-01-12T05:46:56.465Z,2.32
2018-01-12T05:49:24.950Z,2.46
2018-01-12T05:51:53.774Z,2.33
2018-01-12T05:54:22.325Z,2.27
2018-01-12T05:56:51.137Z,2.36
2018-01-12T05:59:19.661Z,2.45
2018-01-12T06:01:59.499Z,2.37
2018-01-12T06:06:41.330Z,2.28
2018-01-12T06:09:10.218Z,2.30
2018-01-12T06:11:38.925Z,2.31
2018-01-12T06:14:07.460Z,2.42
2018-01-12T06:16:35.997Z,2.43
2018-01-12T06:19:04.628Z,2.22
2018-01-12T06:21:33.288Z,2.28
2018-01-12T06:24:01.843Z,2.39
2018-01-12T06:26:30.357Z,2.22
2018-01-12T06:28:58.923Z,2.24
2018-01-12T06:31:27.565Z,2.16
2018-01-12T06:33:56.087Z,2.16
2018-01-12T06:36:24.757Z,2.27
2018-01-12T06:38:53.843Z,2.38
2018-01-12T06:41:22.514Z,2.44
2018-01-12T06:43:52.619Z,2.52
2018-01-12T06:46:21.210Z,2.41
2018-01-12T06:48:49.835Z,2.42
2018-01-12T06:51:18.547Z,2.49
2018-01-12T06:53:47.345Z,2.31
2018-01-12T06:56:16.138Z,2.30
2018-01-12T06:58:44.788Z,2.66
2018-01-12T07:01:13.309Z,2.40
2018-01-12T07:03:41.908Z,2.44
2018-01-12T07:06:11.397Z,2.35
2018-01-12T07:08:39.984Z,2.03
2018-01-12T07:11:08.816Z,2.11
2018-01-12T07:13:37.685Z,2.03
2018-01-12T07:16:06.269Z,2.03
2018-01-12T07:18:34.870Z,2.04
2018-01-12T07:21:14.768Z,2.17
2018-01-12T07:23:45.509Z,2.18
2018-01-12T07:26:14.053Z,2.10
2018-01-12T07:28:42.608Z,2.06
2018-01-12T07:31:11.153Z,2.18
2018-01-12T07:33:39.659Z,2.24
2018-01-12T07:36:08.209Z,2.11
2018-01-12T07:38:36.924Z,2.08
2018-01-12T07:41:05.491Z,2.31
2018-01-12T07:43:33.997Z,2.26
2018-01-12T07:46:04.343Z,2.26
2018-01-12T07:48:32.883Z,2.15
2018-01-12T07:51:01.589Z,2.16
2018-01-12T07:53:30.495Z,2.40
2018-01-12T07:55:59.193Z,2.42
2018-01-12T07:58:27.841Z,2.27
2018-01-12T08:01:00.851Z,2.30
2018-01-12T08:03:29.508Z,2.09
2018-01-12T08:05:58.039Z,2.01
2018-01-12T08:08:26.688Z,2.29
2018-01-12T08:10:55.443Z,2.09
2018-01-12T08:13:23.983Z,2.24
2018-01-12T08:15:52.545Z,2.35
2018-01-12T08:18:21.059Z,2.46
2018-01-12T08:20:49.950Z,2.58
2018-01-12T08:23:21.718Z,2.47
2018-01-12T08:25:50.712Z,2.34
2018-01-12T08:28:19.542Z,2.31
2018-01-12T08:30:48.367Z,2.29
2018-01-12T08:33:16.927Z,2.48
2018-01-12T08:35:45.778Z,2.35
2018-01-12T08:38:14.977Z,2.13
2018-01-12T08:40:43.856Z,2.04
2018-01-12T08:43:12.426Z,2.23
2018-01-12T08:45:41.017Z,2.34
2018-01-12T08:48:09.587Z,2.31
2018-01-12T08:50:38.202Z,2.19
2018-01-12T08:53:12.674Z,2.20
2018-01-12T08:55:42.472Z,2.30
2018-01-12T08:58:13.384Z,2.52
2018-01-12T09:00:42.140Z,2.42
2018-01-12T09:03:11.374Z,2.26
2018-01-12T09:05:39.939Z,2.34
2018-01-12T09:08:08.777Z,2.27
2018-01-12T09:10:37.456Z,2.11
2018-01-12T09:13:15.080Z,2.07
2018-01-12T09:15:43.744Z,2.24
2018-01-12T09:18:21.297Z,2.15
2018-01-12T09:20:50.428Z,2.27
2018-01-12T09:23:27.945Z,2.26
2018-01-12T09:25:56.596Z,2.21
2018-01-12T09:28:25.307Z,2.27
2018-01-12T09:30:53.981Z,2.56
2018-01-12T09:33:22.543Z,2.44
2018-01-12T09:35:51.191Z,2.46
2018-01-12T09:38:28.015Z,2.50
2018-01-12T09:40:56.716Z,2.53
2018-01-12T09:43:25.336Z,2.25
2018-01-12T09:45:54.335Z,2.41
2018-01-12T09:48:27.747Z,2.52
2018-01-12T09:50:56.579Z,2.29
2018-01-12T09:53:25.137Z,2.37
2018-01-12T09:55:53.761Z,2.37
2018-01-12T09:58:22.383Z,2.44
2018-01-12T10:00:59.171Z,2.58
2018-01-12T10:03:27.928Z,2.39
2018-01-12T10:05:57.102Z,2.45
2018-01-12T10:08:26.403Z,2.47
2018-01-12T10:10:55.000Z,2.50
2018-01-12T10:13:23.609Z,2.56
2018-01-12T10:15:52.191Z,2.76
2018-01-12T10:18:25.550Z,2.29
2018-01-12T10:20:55.103Z,2.49
2018-01-12T10:23:23.717Z,2.54
2018-01-12T10:25:52.429Z,2.56
2018-01-12T10:28:21.106Z,2.51
2018-01-12T10:30:57.451Z,2.49
2018-01-12T10:33:31.946Z,2.53
2018-01-12T10:36:07.335Z,2.59
2018-01-12T10:38:36.163Z,2.63
2018-01-12T10:41:13.571Z,2.60
2018-01-12T10:43:43.544Z,2.51
2018-01-12T10:46:20.995Z,2.55
2018-01-12T10:48:57.066Z,2.56
2018-01-12T10:51:34.653Z,2.47
2018-01-12T10:54:03.651Z,2.61
2018-01-12T10:56:32.224Z,2.56
2018-01-12T10:59:00.780Z,2.60
2018-01-12T11:01:29.598Z,2.71
2018-01-12T11:03:58.300Z,2.74
2018-01-12T11:06:27.227Z,2.74
2018-01-12T11:08:56.088Z,2.82
2018-01-12T11:11:24.983Z,2.86
2018-01-12T11:13:53.836Z,2.91
2018-01-12T11:16:22.552Z,2.75
2018-01-12T11:18:51.208Z,2.67
2018-01-12T11:21:19.874Z,2.58
2018-01-12T11:23:48.804Z,2.93
2018-01-12T11:26:18.012Z,2.84
2018-01-12T11:28:46.561Z,2.83
2018-01-12T11:31:15.084Z,2.66
2018-01-12T11:33:45.389Z,2.75
2018-01-12T11:36:13.999Z,2.68
2018-01-12T11:38:42.600Z,2.64
2018-01-12T11:41:11.148Z,2.72
2018-01-12T11:43:39.838Z,2.72
2018-01-12T11:46:08.524Z,2.62
2018-01-12T11:48:37.068Z,2.69
2018-01-12T11:51:05.780Z,2.98
2018-01-12T11:53:34.635Z,2.87
2018-01-12T11:56:03.173Z,2.75
2018-01-12T11:58:31.816Z,2.58
2018-01-12T12:01:00.548Z,2.44
2018-01-12T12:03:29.179Z,2.49
2018-01-12T12:05:58.752Z,2.46
2018-01-12T12:08:27.392Z,2.50
2018-01-12T12:10:56.283Z,2.37
2018-01-12T12:13:25.388Z,2.35
2018-01-12T12:15:54.504Z,2.36
2018-01-12T12:18:23.477Z,2.40
2018-01-12T12:20:52.177Z,2.33
2018-01-12T12:23:20.850Z,2.56
2018-01-12T12:25:49.936Z,2.62
2018-01-12T12:28:19.485Z,2.37
2018-01-12T12:30:48.340Z,2.32
2018-01-12T12:33:17.657Z,2.47
2018-01-12T12:35:47.394Z,2.62
2018-01-12T12:38:17.007Z,2.62
2018-01-12T12:40:46.482Z,2.49
2018-01-12T12:43:15.257Z,2.56
2018-01-12T12:45:43.861Z,2.33
2018-01-12T12:48:13.128Z,2.45
2018-01-12T12:50:42.951Z,2.79
2018-01-12T12:53:11.938Z,2.55
2018-01-12T12:55:42.725Z,2.60
2018-01-12T12:58:11.607Z,2.63
2018-01-12T13:00:41.560Z,2.28
2018-01-12T13:03:11.540Z,2.81
2018-01-12T13:05:40.872Z,2.76
2018-01-12T13:08:09.461Z,2.53
2018-01-12T13:10:38.463Z,2.53
2018-01-12T13:13:07.038Z,2.67
2018-01-12T13:15:36.186Z,2.58
2018-01-12T13:18:04.799Z,2.51
2018-01-12T13:20:33.538Z,2.65
2018-01-12T13:23:02.428Z,2.61
2018-01-12T13:25:31.133Z,2.51
2018-01-12T13:28:00.199Z,2.33
2018-01-12T13:30:29.134Z,2.47
2018-01-12T13:32:57.742Z,2.55
2018-01-12T13:35:26.676Z,2.38
2018-01-12T13:37:55.538Z,2.33
2018-01-12T13:40:24.449Z,2.42
2018-01-12T13:42:53.308Z,2.53
2018-01-12T13:45:21.892Z,2.45
2018-01-12T13:47:50.455Z,2.37
2018-01-12T13:50:19.343Z,2.48
2018-01-12T13:52:48.243Z,2.47
2018-01-12T13:55:16.979Z,2.53
2018-01-12T13:57:45.814Z,2.51
2018-01-12T14:00:14.573Z,2.65
2018-01-12T14:02:43.192Z,2.61
2018-01-12T14:05:12.934Z,2.59
2018-01-12T14:07:41.459Z,2.47
2018-01-12T14:10:10.522Z,2.48
2018-01-12T14:12:39.239Z,2.60
2018-01-12T14:15:09.806Z,2.45
2018-01-12T14:17:38.643Z,2.47
2018-01-12T14:20:07.524Z,2.40
2018-01-12T14:22:36.103Z,2.49
2018-01-12T14:25:04.898Z,2.47
2018-01-12T14:27:33.938Z,2.38
2018-01-12T14:30:03.928Z,2.36
2018-01-12T14:32:32.822Z,2.44
2018-01-12T14:35:01.487Z,2.47
2018-01-12T14:37:30.166Z,2.55
2018-01-12T14:39:58.882Z,2.67
2018-01-12T14:42:28.281Z,2.46
2018-01-12T14:44:56.808Z,2.57
2018-01-12T14:47:25.602Z,2.46
2018-01-12T14:49:54.253Z,2.49
2018-01-12T14:52:23.208Z,2.36
2018-01-12T14:54:53.063Z,2.40
2018-01-12T14:57:22.201Z,2.27
2018-01-12T14:59:51.081Z,2.39
2018-01-12T15:02:20.005Z,2.46
2018-01-12T15:04:48.860Z,2.41
2018-01-12T15:07:18.797Z,2.44
2018-01-12T15:09:47.647Z,2.45
2018-01-12T15:12:16.269Z,2.48
2018-01-12T15:14:45.264Z,2.44
2018-01-12T15:17:14.665Z,2.28
2018-01-12T15:19:44.257Z,2.25
2018-01-12T15:22:13.349Z,2.35
2018-01-12T15:24:42.259Z,2.23
2018-01-12T15:27:12.150Z,2.43
2018-01-12T15:29:41.268Z,2.37
2018-01-12T15:32:10.172Z,2.45
2018-01-12T15:34:39.222Z,2.23
2018-01-12T15:37:08.140Z,2.22
2018-01-12T15:39:37.710Z,2.36
2018-01-12T15:42:06.518Z,2.24
2018-01-12T15:44:36.108Z,2.20
2018-01-12T15:47:05.397Z,2.18
2018-01-12T15:49:34.752Z,2.15
2018-01-12T15:52:03.951Z,2.27
2018-01-12T15:54:32.944Z,2.37
2018-01-12T15:57:02.217Z,2.26
2018-01-12T15:59:30.774Z,2.28
2018-01-12T16:01:59.491Z,2.21
2018-01-12T16:04:28.741Z,2.24
2018-01-12T16:06:57.621Z,2.30
2018-01-12T16:09:27.790Z,2.51
2018-01-12T16:11:57.117Z,2.37
2018-01-12T16:14:25.994Z,2.26
2018-01-12T16:16:55.197Z,2.34
2018-01-12T16:19:24.204Z,2.29
2018-01-12T16:21:53.806Z,2.32
2018-01-12T16:24:23.698Z,2.40
2018-01-12T16:26:52.814Z,2.26
2018-01-12T16:29:21.688Z,2.33
2018-01-12T16:31:50.801Z,2.17
2018-01-12T16:34:19.433Z,2.28
2018-01-12T16:37:51.664Z,2.29
2018-01-12T16:40:20.551Z,2.22
2018-01-12T16:42:49.407Z,2.21
2018-01-12T16:45:18.254Z,2.38
2018-01-12T16:47:47.395Z,2.26
2018-01-12T16:50:17.524Z,2.22
2018-01-12T16:52:46.304Z,2.32
2018-01-12T16:55:15.213Z,2.47
2018-01-12T16:57:44.086Z,2.57
2018-01-12T17:00:12.903Z,2.39
2018-01-12T17:02:41.518Z,2.14
2018-01-12T17:05:10.757Z,2.20
2018-01-12T17:07:39.411Z,2.26
2018-01-12T17:10:08.335Z,2.22
2018-01-12T17:12:37.669Z,2.16
2018-01-12T17:15:07.989Z,2.30
2018-01-12T17:17:36.649Z,2.25
2018-01-12T17:20:05.765Z,2.34
2018-01-12T17:22:35.247Z,2.41
2018-01-12T17:25:03.960Z,2.32
2018-01-12T17:27:32.605Z,2.26
2018-01-12T17:30:01.481Z,2.25
2018-01-12T17:32:30.404Z,2.25
2018-01-12T17:34:58.848Z,2.30
2018-01-12T17:37:27.593Z,2.21
2018-01-12T17:39:56.216Z,2.15
2018-01-12T17:42:24.973Z,2.27
2018-01-12T17:44:53.620Z,2.15
2018-01-12T17:47:22.271Z,2.15
2018-01-12T17:49:50.841Z,2.14
2018-01-12T17:52:19.499Z,2.17
2018-01-12T17:54:48.440Z,2.08
2018-01-12T17:57:17.265Z,2.17
2018-01-12T17:59:46.557Z,2.27
2018-01-12T18:02:15.560Z,2.17
2018-01-12T18:04:44.295Z,2.38
2018-01-12T18:07:13.195Z,2.19
2018-01-12T18:09:42.258Z,2.21
2018-01-12T18:12:11.928Z,2.22
2018-01-12T18:14:40.475Z,2.32
2018-01-12T18:17:09.115Z,2.14
2018-01-12T18:19:37.669Z,2.35
2018-01-12T18:22:06.662Z,2.20
2018-01-12T18:24:35.673Z,2.11
2018-01-12T18:27:04.208Z,2.23
2018-01-12T18:29:33.000Z,2.32
2018-01-12T18:32:01.627Z,2.18
2018-01-12T18:34:30.187Z,2.12
2018-01-12T18:36:58.916Z,2.32
2018-01-12T18:39:27.549Z,2.05
2018-01-12T18:41:56.123Z,2.16
2018-01-12T18:44:24.756Z,2.25
2018-01-12T18:46:53.390Z,2.21
2018-01-12T18:49:22.204Z,2.24
2018-01-12T18:51:50.901Z,2.40
2018-01-12T18:54:19.754Z,2.35
2018-01-12T18:56:48.297Z,2.26
2018-01-12T18:59:17.110Z,2.20
2018-01-12T19:01:46.389Z,2.26
2018-01-12T19:04:15.150Z,2.21
2018-01-12T19:06:43.760Z,2.26
2018-01-12T19:09:12.961Z,2.15
2018-01-12T19:11:41.625Z,2.12
2018-01-12T19:14:10.144Z,2.22
2018-01-12T19:16:39.217Z,2.25
2018-01-12T19:19:07.981Z,2.13
2018-01-12T19:21:36.705Z,2.11
2018-01-12T19:24:06.089Z,2.03
2018-01-12T19:26:36.068Z,2.05
2018-01-12T19:29:04.793Z,2.09
2018-01-12T19:31:33.479Z,2.04
2018-01-12T19:34:03.607Z,2.07
2018-01-12T19:36:32.893Z,2.02
2018-01-12T19:39:02.394Z,1.90
2018-01-12T19:41:31.186Z,2.00
2018-01-12T19:43:59.776Z,2.01
2018-01-12T19:46:28.530Z,1.99
2018-01-12T19:48:57.187Z,2.04
2018-01-12T19:51:26.138Z,2.03
2018-01-12T19:53:55.032Z,1.90
2018-01-12T19:56:23.623Z,1.96
2018-01-12T19:58:53.284Z,1.83
2018-01-12T20:01:22.152Z,1.95
2018-01-12T20:03:50.954Z,2.03
2018-01-12T20:06:19.973Z,1.96
2018-01-12T20:08:48.680Z,2.13
2018-01-12T20:11:18.063Z,2.13
2018-01-12T20:13:47.885Z,1.98
2018-01-12T20:16:17.312Z,1.84
2018-01-12T20:18:46.725Z,2.04
2018-01-12T20:21:17.024Z,2.02
2018-01-12T20:23:47.074Z,2.05
2018-01-12T20:26:17.044Z,1.95
2018-01-12T20:28:45.977Z,1.83
2018-01-12T20:31:14.868Z,1.83
2018-01-12T20:33:43.345Z,1.93
2018-01-12T20:36:13.342Z,2.05
2018-01-12T20:38:42.167Z,1.86
2018-01-12T20:41:12.096Z,1.86
2018-01-12T20:43:41.562Z,2.07
2018-01-12T20:46:12.813Z,1.90
2018-01-12T20:48:42.643Z,1.95
2018-01-12T20:51:13.738Z,1.87
2018-01-12T20:53:44.436Z,1.92
2018-01-12T20:56:17.761Z,2.02
2018-01-12T20:58:46.433Z,2.00
2018-01-12T21:01:15.041Z,2.12
2018-01-12T21:03:44.860Z,1.89
2018-01-12T21:06:14.549Z,1.84
2018-01-12T21:08:43.207Z,1.97
2018-01-12T21:11:12.507Z,1.82
2018-01-12T21:13:41.478Z,1.83
2018-01-12T21:16:10.434Z,1.89
2018-01-12T21:18:39.120Z,1.77
2018-01-12T21:21:08.160Z,1.76
2018-01-12T21:23:36.946Z,1.97
2018-01-12T21:26:05.672Z,1.84
2018-01-12T21:28:34.223Z,1.82
2018-01-12T21:31:03.233Z,1.91
2018-01-12T21:33:31.947Z,1.80
2018-01-12T21:36:01.775Z,1.70
2018-01-12T21:38:31.152Z,1.63
2018-01-12T21:40:59.707Z,1.66
2018-01-12T21:43:29.131Z,1.65
2018-01-12T21:45:58.150Z,1.70
2018-01-12T21:48:26.852Z,1.72
2018-01-12T21:50:55.601Z,1.76
2018-01-12T21:53:25.510Z,1.84
2018-01-12T21:55:54.208Z,1.65
2018-01-12T21:58:23.534Z,1.74
2018-01-12T22:00:52.996Z,1.82
2018-01-12T22:03:22.564Z,1.83
2018-01-12T22:05:51.620Z,1.66
2018-01-12T22:08:20.307Z,1.63
2018-01-12T22:10:48.909Z,1.84
2018-01-12T22:13:18.517Z,1.68
2018-01-12T22:15:47.850Z,1.73
2018-01-12T22:18:17.061Z,1.53
2018-01-12T22:20:45.666Z,1.51
2018-01-12T22:23:14.265Z,1.57
2018-01-12T22:25:43.162Z,1.45
2018-01-12T22:28:11.882Z,1.51
2018-01-12T22:30:40.529Z,1.57
2018-01-12T22:33:10.016Z,1.47
2018-01-12T22:35:38.648Z,1.48
2018-01-12T22:38:07.266Z,1.45
2018-01-12T22:40:36.202Z,1.63
2018-01-12T22:43:04.892Z,1.59
2018-01-12T22:45:33.436Z,1.60
2018-01-12T22:48:03.604Z,1.55
2018-01-12T22:50:32.672Z,1.53
2018-01-12T22:53:01.563Z,1.53
2018-01-12T22:55:30.247Z,1.68
2018-01-12T22:57:58.808Z,1.61
2018-01-12T23:00:27.386Z,1.56
2018-01-12T23:02:56.505Z,1.51
2018-01-12T23:05:25.200Z,1.44
2018-01-12T23:07:53.922Z,1.58
2018-01-12T23:10:24.363Z,1.57
2018-01-12T23:12:54.307Z,1.60
2018-01-12T23:15:24.277Z,1.41
2018-01-12T23:17:53.492Z,1.49
2018-01-12T23:20:23.033Z,1.47
2018-01-12T23:22:51.781Z,1.34
2018-01-12T23:25:20.391Z,1.37
2018-01-12T23:27:48.966Z,1.39
2018-01-12T23:30:18.168Z,1.55
2018-01-12T23:32:46.708Z,1.52
2018-01-12T23:35:15.437Z,1.49
2018-01-12T23:37:44.557Z,1.37
2018-01-12T23:40:13.111Z,1.24
2018-01-12T23:42:41.909Z,1.35
2018-01-12T23:45:10.682Z,1.33
2018-01-12T23:47:39.283Z,1.38
2018-01-12T23:50:07.947Z,1.58
2018-01-12T23:52:36.501Z,1.41
2018-01-12T23:55:04.928Z,1.35
2018-01-12T23:57:33.555Z,1.45
